Time;durP1;ratioP1;P1;durP2;ratioP2;P2;SDS_P1;SDS_P2;PMS_P1;PMS_P2;Temp;Humidity;BMP_temperature;BMP_pressure;BME280_temperature;BME280_humidity;BME280_pressure;Samples;Min_cycle;Max_cycle;Signal;HPM_P1;HPM_P2
2022/12/11 00:02:03;;;;;;;12.80;7.93;;;11.40;61.70;;;;;;5052824;28;20090;-77
2022/12/11 00:04:29;;;;;;;12.52;8.00;;;11.40;61.70;;;;;;5053380;28;20471;-77
2022/12/11 00:06:55;;;;;;;11.43;7.43;;;11.30;61.70;;;;;;5052844;28;20040;-77
2022/12/11 00:09:21;;;;;;;10.48;7.75;;;;;;;;;;5052708;28;20390;-77
2022/12/11 00:11:47;;;;;;;11.77;8.15;;;11.40;76.50;;;;;;5052658;28;20024;-77
2022/12/11 00:14:14;;;;;;;10.93;7.78;;;11.30;61.70;;;;;;5051379;28;20108;-77
2022/12/11 00:16:40;;;;;;;9.05;7.07;;;11.40;61.80;;;;;;5052680;28;20422;-77
2022/12/11 00:19:06;;;;;;;11.13;8.20;;;11.30;61.70;;;;;;5052631;28;20091;-77
2022/12/11 00:21:32;;;;;;;14.45;8.95;;;11.30;61.80;;;;;;5051192;28;20036;-77
2022/12/11 00:23:59;;;;;;;9.90;7.03;;;11.30;61.50;;;;;;5051281;28;20024;-77
2022/12/11 00:26:24;;;;;;;11.82;8.18;;;11.30;61.70;;;;;;5052392;28;20055;-77
2022/12/11 00:28:55;;;;;;;9.90;7.68;;;11.30;61.60;;;;;;5051192;28;20017;-77
2022/12/11 00:31:22;;;;;;;12.63;8.45;;;11.30;61.60;;;;;;5051102;28;20045;-78
2022/12/11 00:33:48;;;;;;;11.10;7.97;;;11.30;61.60;;;;;;5052436;28;20123;-77
2022/12/11 00:36:25;;;;;;;10.10;7.53;;;11.30;61.70;;;;;;5051525;28;20041;-78
2022/12/11 00:38:52;;;;;;;12.45;8.57;;;11.40;74.60;;;;;;5052358;28;20052;-77
2022/12/11 00:41:19;;;;;;;10.90;7.20;;;11.30;61.60;;;;;;5050915;28;20110;-77
2022/12/11 00:43:45;;;;;;;10.18;7.57;;;11.30;61.70;;;;;;5051096;28;20552;-78
2022/12/11 00:46:11;;;;;;;10.15;7.25;;;11.30;61.70;;;;;;5052175;28;20021;-77
2022/12/11 00:48:37;;;;;;;11.85;7.35;;;11.30;61.70;;;;;;5050995;28;20025;-77
2022/12/11 00:51:03;;;;;;;12.60;7.28;;;11.30;61.70;;;;;;5052292;28;20060;-77
2022/12/11 00:53:29;;;;;;;10.40;7.78;;;11.30;74.30;;;;;;5050780;28;20094;-77
2022/12/11 00:55:55;;;;;;;10.02;7.40;;;11.30;61.60;;;;;;5050882;28;20502;-77
2022/12/11 00:58:20;;;;;;;10.38;7.53;;;11.40;76.50;;;;;;5052067;28;20057;-78
2022/12/11 01:00:47;;;;;;;8.73;6.68;;;11.30;61.70;;;;;;5051013;28;20083;-77
2022/12/11 01:03:14;;;;;;;9.88;7.18;;;11.30;61.70;;;;;;5050883;28;20023;-77
2022/12/11 01:05:40;;;;;;;9.60;6.95;;;11.30;61.60;;;;;;5050788;28;20018;-77
2022/12/11 01:08:06;;;;;;;8.68;6.65;;;11.30;61.70;;;;;;5052044;28;20419;-77
2022/12/11 01:10:33;;;;;;;9.40;7.13;;;11.30;61.70;;;;;;5052034;28;20033;-78
2022/12/11 01:13:04;;;;;;;9.68;7.78;;;11.30;61.60;;;;;;5052037;28;20040;-77
2022/12/11 01:15:39;;;;;;;9.05;7.18;;;11.20;74.40;;;;;;5052072;28;20036;-77
2022/12/11 01:18:05;;;;;;;10.18;7.38;;;11.20;61.50;;;;;;5051979;28;20033;-77
2022/12/11 01:20:31;;;;;;;9.93;6.60;;;11.30;61.60;;;;;;5050587;28;20025;-77
2022/12/11 01:22:59;;;;;;;9.85;6.43;;;11.20;61.60;;;;;;5051918;28;20064;-78
2022/12/11 01:25:26;;;;;;;7.15;6.13;;;11.20;61.60;;;;;;5051915;28;20036;-77
2022/12/11 01:27:53;;;;;;;9.65;7.60;;;11.20;61.60;;;;;;5051672;28;20045;-77
2022/12/11 01:30:21;;;;;;;8.05;5.82;;;11.20;61.60;;;;;;5051827;28;20029;-77
2022/12/11 01:32:47;;;;;;;9.48;7.10;;;11.30;61.60;;;;;;5050507;28;20024;-77
2022/12/11 01:35:13;;;;;;;9.35;5.85;;;11.00;75.70;;;;;;5050526;28;20521;-77
2022/12/11 01:37:39;;;;;;;8.55;6.45;;;11.20;61.50;;;;;;5051993;28;20096;-77
2022/12/11 01:40:06;;;;;;;8.50;6.30;;;11.20;61.60;;;;;;5051865;28;20463;-77
2022/12/11 01:42:32;;;;;;;7.60;6.47;;;11.20;61.60;;;;;;5050306;28;20033;-76
2022/12/11 01:45:21;;;;;;;7.65;6.13;;;11.20;61.60;;;;;;5051698;28;20032;-77
2022/12/11 01:47:54;;;;;;;7.57;5.65;;;11.20;76.40;;;;;;5047956;28;20380;-77
2022/12/11 01:50:20;;;;;;;8.38;5.95;;;11.20;61.60;;;;;;5055535;28;20128;-76
2022/12/11 01:52:47;;;;;;;8.13;5.68;;;11.20;61.60;;;;;;5055177;28;20492;-77
2022/12/11 01:55:13;;;;;;;8.70;6.15;;;11.20;61.60;;;;;;5055275;28;20460;-77
2022/12/11 01:57:41;;;;;;;7.28;5.90;;;11.20;61.50;;;;;;5055278;28;20021;-76
2022/12/11 02:00:08;;;;;;;8.07;5.55;;;11.20;61.60;;;;;;5055245;28;20380;-78
2022/12/11 02:02:34;;;;;;;7.32;5.97;;;11.20;76.30;;;;;;5053732;28;20041;-77
2022/12/11 02:05:04;;;;;;;7.82;5.97;;;11.20;61.60;;;;;;5055100;28;20476;-78
2022/12/11 02:07:34;;;;;;;;;;;11.20;61.60;;;;;;5055527;28;20021;-78
2022/12/11 02:10:00;;;;;;;8.68;6.03;;;11.20;61.50;;;;;;5055108;28;19940;-77
2022/12/11 02:12:56;;;;;;;7.78;5.70;;;11.20;61.50;;;;;;5055011;28;20036;-77
2022/12/11 02:15:39;;;;;;;6.03;5.32;;;11.20;61.60;;;;;;5052517;28;20033;-77
2022/12/11 02:18:43;;;;;;;7.22;5.32;;;11.20;61.60;;;;;;5055117;28;20025;-77
2022/12/11 02:21:32;;;;;;;7.00;5.65;;;11.20;61.60;;;;;;5053585;28;20091;-77
2022/12/11 02:24:18;;;;;;;7.28;5.43;;;11.20;74.20;;;;;;5054761;28;20028;-77
2022/12/11 02:27:10;;;;;;;5.97;4.72;;;11.20;61.60;;;;;;5054721;28;20060;-77
2022/12/11 02:30:03;;;;;;;6.25;5.25;;;11.20;61.60;;;;;;5054696;28;20068;-77
2022/12/11 02:32:50;;;;;;;6.47;5.57;;;11.20;61.50;;;;;;5054663;28;20025;-77
2022/12/11 02:35:19;;;;;;;7.10;5.22;;;11.10;61.30;;;;;;5054608;28;20150;-77
2022/12/11 02:37:47;;;;;;;8.60;5.60;;;11.10;61.60;;;;;;5053210;28;20021;-77
2022/12/11 02:40:18;;;;;;;5.72;5.13;;;11.20;61.50;;;;;;5053192;28;20027;-77
2022/12/11 02:42:47;;;;;;;8.35;5.80;;;11.20;61.60;;;;;;5053107;28;20415;-77
2022/12/11 02:45:14;;;;;;;7.57;6.25;;;11.10;61.40;;;;;;5053346;28;20108;-77
2022/12/11 02:47:42;;;;;;;6.30;5.10;;;11.10;61.50;;;;;;5054353;28;20104;-77
2022/12/11 02:50:12;;;;;;;6.80;5.13;;;11.10;61.30;;;;;;5054469;28;20087;-77
2022/12/11 02:52:41;;;;;;;7.50;5.07;;;11.10;61.50;;;;;;5054553;28;20167;-77
2022/12/11 02:55:08;;;;;;;6.55;5.30;;;11.10;61.50;;;;;;5052951;28;20025;-77
2022/12/11 02:57:44;;;;;;;8.40;5.82;;;11.20;61.50;;;;;;5052223;28;20069;-77
2022/12/11 03:00:11;;;;;;;5.97;5.15;;;11.10;61.40;;;;;;5054099;28;20025;-76
2022/12/11 03:02:39;;;;;;;6.78;5.53;;;11.10;61.50;;;;;;5052757;28;20033;-76
2022/12/11 03:05:05;;;;;;;7.18;5.50;;;11.20;73.90;;;;;;5053979;28;20029;-76
2022/12/11 03:07:37;;;;;;;6.53;5.40;;;11.00;76.30;;;;;;5053970;28;20682;-76
2022/12/11 03:10:05;;;;;;;7.32;5.28;;;11.10;61.40;;;;;;5052735;28;20071;-76
2022/12/11 03:12:35;;;;;;;7.55;5.30;;;11.10;61.40;;;;;;5054022;28;20021;-76
2022/12/11 03:15:04;;;;;;;5.60;4.85;;;11.10;61.40;;;;;;5052549;28;20029;-76
2022/12/11 03:17:40;;;;;;;6.63;5.40;;;11.10;61.20;;;;;;5053769;28;20025;-76
2022/12/11 03:20:33;;;;;;;7.53;5.10;;;11.10;76.60;;;;;;5052400;28;20052;-76
2022/12/11 03:23:11;;;;;;;7.53;5.18;;;11.10;61.40;;;;;;5053630;28;20040;-76
2022/12/11 03:25:54;;;;;;;5.25;4.75;;;11.10;61.20;;;;;;5053549;28;20075;-76
2022/12/11 03:28:39;;;;;;;6.32;5.10;;;11.10;61.40;;;;;;5053623;28;20033;-77
2022/12/11 03:31:09;;;;;;;6.90;4.78;;;10.90;76.00;;;;;;5052302;28;20025;-77
2022/12/11 03:33:39;;;;;;;6.43;4.85;;;11.00;61.30;;;;;;5052236;28;20085;-77
2022/12/11 03:36:13;;;;;;;6.30;5.13;;;11.00;61.30;;;;;;5053312;28;20055;-77
2022/12/11 03:38:56;;;;;;;6.15;5.03;;;11.00;61.10;;;;;;5053365;28;20028;-76
2022/12/11 03:41:24;;;;;;;6.20;5.18;;;11.00;61.30;;;;;;5051974;28;20091;-76
2022/12/11 03:43:53;;;;;;;7.97;4.95;;;11.00;61.20;;;;;;5052006;28;20027;-76
2022/12/11 03:46:22;;;;;;;5.38;4.65;;;11.00;60.70;;;;;;5053220;28;20036;-77
2022/12/11 03:48:49;;;;;;;5.63;4.90;;;11.00;61.40;;;;;;5053317;28;20454;-77
2022/12/11 03:51:16;;;;;;;6.75;5.07;;;11.00;61.20;;;;;;5051724;28;20025;-76
2022/12/11 03:53:43;;;;;;;5.85;4.40;;;11.00;61.10;;;;;;5052993;28;20027;-77
2022/12/11 03:56:10;;;;;;;5.60;4.85;;;11.00;60.70;;;;;;5053188;28;20029;-76
2022/12/11 03:58:36;;;;;;;6.07;4.43;;;11.00;61.30;;;;;;5053004;28;20028;-76
2022/12/11 04:01:08;;;;;;;6.35;4.40;;;11.00;60.60;;;;;;5053176;28;20028;-76
2022/12/11 04:03:34;;;;;;;4.97;4.18;;;11.00;61.20;;;;;;5051659;28;20060;-76
2022/12/11 04:05:59;;;;;;;4.95;4.18;;;11.00;61.20;;;;;;5052993;28;20056;-76
2022/12/11 04:08:25;;;;;;;5.28;4.00;;;11.00;61.30;;;;;;5053154;28;20027;-77
2022/12/11 04:13:36;;;;;;;5.05;4.03;;;11.00;61.30;;;;;;5052951;28;20044;-78
2022/12/11 04:16:02;;;;;;;5.13;3.65;;;11.00;61.30;;;;;;5051387;28;20021;-77
2022/12/11 04:24:14;;;;;;;4.20;3.80;;;11.00;61.30;;;;;;5052927;28;20063;-77
2022/12/11 04:26:41;;;;;;;4.28;3.88;;;11.00;61.30;;;;;;5051238;28;20048;-77
2022/12/11 04:29:07;;;;;;;6.38;3.80;;;11.00;61.30;;;;;;5051213;28;20021;-77
2022/12/11 04:31:33;;;;;;;4.22;3.80;;;11.00;61.20;;;;;;5051159;28;20033;-77
2022/12/11 04:33:58;;;;;;;5.55;3.75;;;11.00;62.10;;;;;;5052647;28;20031;-78
2022/12/11 04:36:24;;;;;;;4.43;3.83;;;11.00;61.40;;;;;;5051381;28;20115;-78
2022/12/11 04:38:50;;;;;;;6.35;4.65;;;11.00;61.90;;;;;;5051052;28;20021;-78
2022/12/11 04:41:16;;;;;;;5.47;4.18;;;11.10;76.40;;;;;;5050919;28;20039;-78
2022/12/11 04:43:43;;;;;;;4.22;3.83;;;11.00;61.80;;;;;;5051102;28;20032;-78
2022/12/11 04:46:16;;;;;;;4.78;3.95;;;11.10;61.90;;;;;;5052260;28;20104;-78
2022/12/11 04:48:42;;;;;;;4.05;3.65;;;11.00;61.70;;;;;;5050862;28;20077;-78
2022/12/11 04:51:08;;;;;;;3.75;3.45;;;11.00;61.80;;;;;;5051023;28;20514;-77
2022/12/11 04:53:34;;;;;;;4.22;3.58;;;11.10;61.80;;;;;;5051979;28;20064;-77
2022/12/11 04:56:03;;;;;;;4.55;3.50;;;11.10;61.90;;;;;;5052080;28;20025;-77
2022/12/11 04:58:29;;;;;;;3.85;3.33;;;11.10;61.90;;;;;;5052071;28;20163;-78
2022/12/11 05:00:54;;;;;;;4.63;3.65;;;11.10;61.90;;;;;;5052076;28;20116;-78
2022/12/11 05:03:20;;;;;;;3.78;2.97;;;11.10;62.00;;;;;;5050868;28;20048;-76
2022/12/11 05:05:51;;;;;;;4.47;3.50;;;11.10;62.00;;;;;;5052104;28;20029;-76
2022/12/11 05:08:17;;;;;;;4.00;3.55;;;11.00;62.00;;;;;;5050817;28;20074;-76
2022/12/11 05:10:43;;;;;;;3.83;3.42;;;11.10;62.00;;;;;;5052048;28;20021;-77
2022/12/11 05:13:09;;;;;;;3.35;2.78;;;11.10;62.00;;;;;;5052019;28;20029;-76
2022/12/11 05:15:39;;;;;;;3.88;3.15;;;11.10;61.50;;;;;;5051957;28;20112;-76
2022/12/11 05:18:05;;;;;;;4.03;3.05;;;11.00;62.00;;;;;;5052363;28;20055;-76
2022/12/11 05:20:31;;;;;;;4.32;3.30;;;;;;;;;;5050581;28;20049;-76
2022/12/11 05:22:56;;;;;;;4.15;3.03;;;11.00;61.40;;;;;;5055590;28;20068;-77
2022/12/11 05:25:22;;;;;;;4.28;3.65;;;11.10;62.60;;;;;;5055861;28;20027;-77
2022/12/11 05:27:47;;;;;;;4.75;3.20;;;11.10;61.90;;;;;;5055441;28;20053;-76
2022/12/11 05:30:13;;;;;;;3.65;3.00;;;11.00;61.90;;;;;;5055863;28;20024;-77
2022/12/11 05:32:38;;;;;;;2.75;2.47;;;11.10;61.90;;;;;;5054471;28;20036;-76
2022/12/11 05:35:04;;;;;;;3.75;3.05;;;11.10;61.90;;;;;;5055741;28;20025;-76
2022/12/11 05:37:32;;;;;;;3.70;3.15;;;11.10;62.00;;;;;;5055828;28;20024;-76
2022/12/11 05:39:57;;;;;;;2.47;2.25;;;11.10;62.00;;;;;;5055597;28;20033;-77
2022/12/11 05:42:23;;;;;;;3.10;2.70;;;11.10;61.90;;;;;;5055854;28;20044;-77
2022/12/11 05:44:49;;;;;;;3.30;3.00;;;11.10;61.90;;;;;;5055552;28;20060;-76
2022/12/11 05:47:15;;;;;;;3.78;3.30;;;11.10;61.80;;;;;;5055540;28;20029;-77
2022/12/11 05:49:41;;;;;;;4.40;2.80;;;11.10;61.70;;;;;;5055401;28;20025;-76
2022/12/11 05:52:06;;;;;;;3.78;3.13;;;11.10;76.40;;;;;;5054002;28;20036;-77
2022/12/11 05:54:32;;;;;;;3.20;2.70;;;11.10;74.00;;;;;;5055524;28;20017;-76
2022/12/11 05:56:57;;;;;;;3.45;3.10;;;11.20;61.70;;;;;;5054108;28;20036;-76
2022/12/11 05:59:23;;;;;;;3.75;2.83;;;11.20;61.60;;;;;;5054114;28;20032;-77
2022/12/11 06:01:48;;;;;;;4.05;2.95;;;11.50;74.20;;;;;;5055041;28;20125;-76
2022/12/11 06:04:14;;;;;;;3.63;2.90;;;11.30;61.40;;;;;;5054010;28;20029;-76
2022/12/11 06:06:40;;;;;;;3.17;2.85;;;11.30;61.30;;;;;;5055105;28;20024;-76
2022/12/11 06:09:06;;;;;;;2.67;2.47;;;11.30;61.30;;;;;;5053852;28;20476;-77
2022/12/11 06:11:33;;;;;;;3.72;3.20;;;11.30;61.30;;;;;;5055064;28;20063;-76
2022/12/11 06:14:01;;;;;;;3.22;2.78;;;11.30;61.30;;;;;;5055077;28;20032;-76
2022/12/11 06:16:26;;;;;;;3.85;3.22;;;11.20;61.30;;;;;;5053845;28;20382;-76
2022/12/11 06:18:52;;;;;;;3.30;3.00;;;;;;;;;;5054907;28;20104;-76
2022/12/11 06:21:21;;;;;;;4.72;3.20;;;11.30;60.70;;;;;;5054910;28;20040;-76
2022/12/11 06:23:48;;;;;;;3.72;3.35;;;11.30;61.30;;;;;;5054802;28;20028;-77
2022/12/11 06:26:15;;;;;;;3.03;2.72;;;11.30;61.30;;;;;;5054662;28;20172;-77
2022/12/11 06:28:41;;;;;;;3.55;3.13;;;11.00;75.50;;;;;;5053705;28;20028;-77
2022/12/11 06:31:06;;;;;;;3.15;2.85;;;11.20;61.30;;;;;;5054758;28;20037;-77
2022/12/11 06:33:33;;;;;;;4.22;2.92;;;11.90;61.60;;;;;;5053408;28;20021;-77
2022/12/11 06:36:04;;;;;;;3.78;3.10;;;11.30;61.20;;;;;;5053360;28;20029;-77
2022/12/11 06:38:29;;;;;;;3.47;3.08;;;11.30;61.10;;;;;;5054596;28;20021;-77
2022/12/11 06:40:57;;;;;;;4.35;3.17;;;11.30;60.60;;;;;;5053117;28;20025;-77
2022/12/11 06:43:23;;;;;;;3.50;3.10;;;11.30;61.20;;;;;;5053185;28;20108;-77
2022/12/11 06:45:49;;;;;;;3.72;3.10;;;11.20;75.40;;;;;;5053069;28;20028;-77
2022/12/11 06:48:15;;;;;;;4.97;3.10;;;11.30;61.10;;;;;;5053112;28;20029;-77
2022/12/11 06:50:40;;;;;;;3.35;3.05;;;11.30;61.10;;;;;;5054329;28;20032;-77
2022/12/11 06:53:06;;;;;;;3.40;3.10;;;11.20;61.20;;;;;;5053003;28;20033;-77
2022/12/11 06:55:34;;;;;;;3.67;2.60;;;11.30;61.20;;;;;;5054296;28;20071;-77
2022/12/11 06:58:00;;;;;;;3.38;3.08;;;11.20;73.50;;;;;;5054126;28;20379;-77
2022/12/11 07:00:26;;;;;;;3.65;3.15;;;11.30;61.00;;;;;;5054398;28;20021;-77
2022/12/11 07:02:52;;;;;;;4.68;3.47;;;;;;;;;;5053945;28;20546;-77
2022/12/11 07:05:18;;;;;;;3.25;2.95;;;11.20;60.50;;;;;;5054081;28;20029;-77
2022/12/11 07:07:43;;;;;;;3.67;2.92;;;11.20;61.00;;;;;;5053934;28;20506;-77
2022/12/11 07:10:10;;;;;;;4.68;3.05;;;11.30;61.30;;;;;;5054045;28;20033;-77
2022/12/11 07:12:35;;;;;;;4.63;3.90;;;11.20;75.00;;;;;;5054003;28;20021;-77
2022/12/11 07:15:01;;;;;;;4.40;3.17;;;11.20;61.20;;;;;;5053831;28;20490;-77
2022/12/11 07:17:28;;;;;;;2.97;2.60;;;13.10;62.10;;;;;;5053866;28;20105;-77
2022/12/11 07:19:53;;;;;;;3.35;2.95;;;11.20;61.00;;;;;;5052492;28;20212;-77
2022/12/11 07:22:19;;;;;;;3.13;2.83;;;11.30;61.10;;;;;;5053668;28;20403;-77
2022/12/11 07:24:45;;;;;;;4.38;3.28;;;11.20;61.10;;;;;;5053626;28;20023;-77
2022/12/11 07:27:10;;;;;;;3.03;2.70;;;11.20;61.10;;;;;;5053307;28;20053;-77
2022/12/11 07:29:36;;;;;;;3.40;2.72;;;11.20;61.10;;;;;;5053656;28;20083;-77
2022/12/11 07:32:01;;;;;;;3.35;3.05;;;11.20;61.10;;;;;;5053449;28;20498;-77
2022/12/11 07:34:27;;;;;;;3.47;3.03;;;11.30;61.40;;;;;;5053448;28;20108;-77
2022/12/11 07:36:53;;;;;;;3.38;2.92;;;11.20;61.10;;;;;;5052126;28;20025;-78
2022/12/11 07:39:18;;;;;;;3.33;2.85;;;11.20;61.10;;;;;;5052092;28;20010;-77
2022/12/11 07:41:45;;;;;;;4.47;3.33;;;11.20;61.10;;;;;;5052312;28;20041;-77
2022/12/11 07:44:12;;;;;;;12.95;4.68;;;11.20;61.20;;;;;;5051473;28;20028;-78
2022/12/11 07:46:39;;;;;;;26.83;5.40;;;11.20;61.30;;;;;;5052011;28;20036;-79
2022/12/11 07:49:05;;;;;;;19.65;4.43;;;11.20;61.20;;;;;;5053286;28;20391;-80
2022/12/11 07:51:34;;;;;;;12.38;3.75;;;11.20;61.40;;;;;;5053228;28;20108;-79
2022/12/11 07:54:20;;;;;;;23.75;4.72;;;11.20;74.50;;;;;;5053012;28;20056;-79
2022/12/11 07:56:46;;;;;;;11.75;5.15;;;11.20;61.60;;;;;;5053144;28;20020;-78
2022/12/11 07:59:13;;;;;;;19.73;4.80;;;11.20;61.60;;;;;;5051829;28;20025;-76
2022/12/11 08:01:39;;;;;;;10.45;4.10;;;11.20;61.60;;;;;;5052751;28;20112;-78
2022/12/11 08:04:07;;;;;;;8.50;4.60;;;11.20;61.60;;;;;;5052832;28;20025;-78
2022/12/11 08:06:34;;;;;;;11.27;4.28;;;11.30;74.00;;;;;;5052841;28;20033;-79
2022/12/11 08:09:02;;;;;;;10.82;4.35;;;11.20;61.60;;;;;;5052706;28;20025;-78
2022/12/11 08:11:28;;;;;;;14.48;4.63;;;11.20;61.60;;;;;;5052619;28;20102;-78
2022/12/11 08:13:54;;;;;;;11.85;4.97;;;11.20;61.70;;;;;;5051286;28;20091;-78
2022/12/11 08:16:20;;;;;;;10.85;5.07;;;11.20;61.70;;;;;;5052395;28;20021;-78
2022/12/11 08:18:46;;;;;;;7.13;4.53;;;11.20;61.60;;;;;;5051162;28;20506;-80
2022/12/11 08:21:18;;;;;;;6.65;4.15;;;11.20;61.60;;;;;;5051135;28;20028;-79
2022/12/11 08:23:44;;;;;;;6.72;4.30;;;11.20;61.60;;;;;;5052458;28;20368;-80
2022/12/11 08:26:17;;;;;;;8.82;4.57;;;11.10;75.20;;;;;;5052691;28;20045;-79
2022/12/11 08:28:43;;;;;;;7.35;4.53;;;11.20;61.60;;;;;;5052481;28;20524;-78
2022/12/11 08:31:10;;;;;;;6.50;4.40;;;11.20;61.60;;;;;;5052267;28;20021;-76
2022/12/11 08:33:37;;;;;;;8.90;4.97;;;11.30;61.60;;;;;;5051049;28;20013;-76
2022/12/11 08:36:06;;;;;;;8.32;4.50;;;11.20;61.50;;;;;;5050981;28;20411;-77
2022/12/11 08:38:31;;;;;;;6.47;3.95;;;11.30;61.60;;;;;;5050861;28;20535;-77
2022/12/11 08:40:57;;;;;;;7.32;4.20;;;11.30;61.60;;;;;;5052076;28;20108;-76
2022/12/11 08:43:23;;;;;;;6.28;4.90;;;11.30;75.50;;;;;;5052090;28;20454;-76
2022/12/11 08:45:49;;;;;;;30.13;18.23;;;11.30;61.50;;;;;;5050792;28;20499;-78
2022/12/11 08:48:15;;;;;;;29.08;15.32;;;11.30;61.20;;;;;;5050337;28;20483;-77
2022/12/11 08:50:41;;;;;;;21.73;14.27;;;11.40;61.00;;;;;;5052125;28;20023;-77
2022/12/11 08:53:06;;;;;;;21.30;13.88;;;11.30;60.90;;;;;;5052138;28;20425;-77
2022/12/11 08:55:32;;;;;;;24.23;14.77;;;11.30;61.00;;;;;;5050309;28;20108;-77
2022/12/11 08:57:58;;;;;;;18.73;11.88;;;11.30;61.10;;;;;;5052048;28;20025;-78
2022/12/11 09:00:24;;;;;;;24.67;13.25;;;11.40;61.20;;;;;;5050797;28;20048;-77
2022/12/11 09:02:50;;;;;;;19.40;11.77;;;11.30;74.60;;;;;;5050791;28;20090;-78
2022/12/11 09:05:16;;;;;;;17.00;10.85;;;11.30;61.20;;;;;;5052026;28;20100;-78
2022/12/11 09:07:42;;;;;;;17.63;10.70;;;11.30;61.30;;;;;;5052031;28;20024;-77
2022/12/11 09:10:08;;;;;;;16.98;10.32;;;11.30;61.80;;;;;;5050674;28;20027;-77
2022/12/11 09:12:34;;;;;;;16.90;9.70;;;11.30;61.20;;;;;;5050645;28;20028;-78
2022/12/11 09:15:00;;;;;;;14.48;10.30;;;11.30;61.20;;;;;;5052042;28;20112;-77
2022/12/11 09:17:26;;;;;;;13.18;9.48;;;11.30;61.10;;;;;;5050606;28;20088;-77
2022/12/11 09:19:51;;;;;;;15.57;9.50;;;11.30;61.20;;;;;;5050757;28;20032;-78
2022/12/11 09:22:17;;;;;;;15.35;10.10;;;11.40;61.20;;;;;;5051891;28;20475;-77
2022/12/11 09:24:43;;;;;;;11.07;8.48;;;11.40;61.20;;;;;;5052098;28;20020;-77
2022/12/11 09:27:09;;;;;;;14.73;8.90;;;11.40;61.20;;;;;;5051727;28;20514;-77
2022/12/11 09:29:34;;;;;;;12.98;8.70;;;11.40;61.20;;;;;;5050502;28;20499;-78
2022/12/11 09:32:00;;;;;;;12.40;8.20;;;11.40;61.20;;;;;;5051742;28;20060;-78
2022/12/11 09:34:25;;;;;;;13.05;8.75;;;11.40;61.10;;;;;;5051995;28;20024;-77
2022/12/11 09:36:51;;;;;;;13.23;8.00;;;11.40;61.00;;;;;;5050463;28;20543;-78
2022/12/11 09:39:17;;;;;;;11.05;7.75;;;11.40;61.30;;;;;;5051830;28;20060;-77
2022/12/11 09:41:59;;;;;;;10.40;7.72;;;11.40;61.10;;;;;;5051560;28;20041;-77
2022/12/11 09:44:42;;;;;;;12.20;7.70;;;11.40;61.10;;;;;;5050472;28;20112;-77
2022/12/11 09:47:54;;;;;;;11.35;7.88;;;11.40;61.10;;;;;;5050361;28;20029;-77
2022/12/11 09:50:47;;;;;;;11.30;7.68;;;11.40;60.90;;;;;;5042567;28;20039;-77
2022/12/11 09:53:33;;;;;;;10.32;7.25;;;11.40;61.00;;;;;;5049790;28;20103;-77
2022/12/11 09:56:08;;;;;;;9.38;6.45;;;11.40;61.00;;;;;;5051797;28;20040;-77
2022/12/11 09:58:52;;;;;;;10.23;7.40;;;11.40;61.00;;;;;;5051900;28;20052;-77
2022/12/11 10:01:42;;;;;;;12.15;7.57;;;11.40;60.80;;;;;;5051497;28;20044;-77
2022/12/11 10:04:31;;;;;;;9.98;7.07;;;11.40;60.90;;;;;;5051650;28;20376;-77
2022/12/11 10:07:16;;;;;;;11.07;7.82;;;11.40;61.00;;;;;;5051765;28;20028;-77
2022/12/11 10:09:50;;;;;;;8.95;6.40;;;11.40;60.90;;;;;;5053819;28;20021;-77
2022/12/11 10:12:31;;;;;;;9.25;6.80;;;11.50;61.10;;;;;;5053727;28;20031;-77
2022/12/11 10:15:23;;;;;;;8.13;5.68;;;11.50;61.00;;;;;;5055122;28;20052;-77
2022/12/11 10:17:50;;;;;;;10.48;6.72;;;11.50;61.00;;;;;;5053669;28;20021;-77
2022/12/11 10:20:35;;;;;;;12.43;5.78;;;11.50;60.90;;;;;;5054872;28;20036;-78
2022/12/11 10:23:04;;;;;;;9.68;5.93;;;11.50;60.80;;;;;;5054806;28;20033;-77
2022/12/11 10:25:35;;;;;;;9.93;6.55;;;11.50;60.80;;;;;;5054900;28;20036;-77
2022/12/11 10:28:11;;;;;;;7.72;5.78;;;11.60;60.70;;;;;;5054631;28;20071;-77
2022/12/11 10:30:39;;;;;;;8.40;5.47;;;11.60;60.80;;;;;;5054657;28;20464;-77
2022/12/11 10:33:10;;;;;;;8.65;5.07;;;11.60;60.80;;;;;;5054719;28;20028;-77
2022/12/11 10:35:47;;;;;;;11.30;6.80;;;11.60;60.80;;;;;;5053380;28;20037;-78
2022/12/11 10:38:19;;;;;;;11.05;6.78;;;11.60;60.70;;;;;;5053288;28;20071;-77
2022/12/11 10:40:50;;;;;;;9.70;6.05;;;11.60;69.90;;;;;;5052958;28;20532;-77
2022/12/11 10:43:15;;;;;;;14.55;6.75;;;11.60;75.20;;;;;;5054468;28;20443;-77
2022/12/11 10:45:53;;;;;;;9.88;6.47;;;11.60;61.20;;;;;;5052847;28;20053;-76
2022/12/11 10:48:19;;;;;;;9.88;5.80;;;11.60;61.30;;;;;;5054258;28;20064;-77
2022/12/11 10:50:56;;;;;;;8.30;5.80;;;11.60;61.40;;;;;;5052902;28;20094;-77
2022/12/11 10:53:23;;;;;;;10.43;6.45;;;11.60;61.30;;;;;;5053060;28;20112;-77
2022/12/11 10:55:49;;;;;;;8.70;5.75;;;11.60;61.30;;;;;;5052781;28;20048;-77
2022/12/11 10:58:21;;;;;;;8.82;6.32;;;11.40;74.90;;;;;;5054050;28;20075;-77
2022/12/11 11:01:05;;;;;;;9.13;5.60;;;11.60;61.30;;;;;;5053856;28;20025;-77
2022/12/11 11:03:32;;;;;;;10.93;5.97;;;11.60;61.20;;;;;;5053963;28;20037;-77
2022/12/11 11:06:18;;;;;;;12.10;6.95;;;11.60;61.10;;;;;;5052582;28;20021;-77
2022/12/11 11:08:53;;;;;;;10.23;6.45;;;11.60;61.10;;;;;;5054016;28;20064;-77
2022/12/11 11:11:26;;;;;;;12.18;6.82;;;11.60;61.00;;;;;;5052733;28;20055;-77
2022/12/11 11:14:04;;;;;;;8.25;5.20;;;11.60;61.00;;;;;;5053785;28;20028;-77
2022/12/11 11:16:30;;;;;;;11.13;6.68;;;11.60;61.10;;;;;;5052641;28;20055;-77
2022/12/11 11:18:57;;;;;;;9.10;6.00;;;11.70;60.50;;;;;;5053191;28;20021;-77
2022/12/11 11:21:24;;;;;;;9.85;6.53;;;11.60;61.00;;;;;;5052465;28;20025;-77
2022/12/11 11:23:52;;;;;;;9.82;6.07;;;11.60;60.90;;;;;;5052380;28;20070;-77
2022/12/11 11:26:19;;;;;;;10.15;6.32;;;11.70;61.00;;;;;;5053413;28;20033;-77
2022/12/11 11:28:51;;;;;;;10.32;6.30;;;11.60;60.80;;;;;;5053754;28;20029;-77
2022/12/11 11:31:18;;;;;;;9.50;6.07;;;11.70;60.90;;;;;;5053594;28;20029;-77
2022/12/11 11:34:05;;;;;;;9.90;6.28;;;11.60;60.80;;;;;;5052228;28;20033;-77
2022/12/11 11:36:35;;;;;;;10.55;6.05;;;11.90;74.80;;;;;;5051981;28;20017;-77
2022/12/11 11:39:30;;;;;;;9.48;6.00;;;11.60;60.80;;;;;;5053189;28;20496;-77
2022/12/11 11:42:18;;;;;;;10.50;5.63;;;11.70;60.80;;;;;;5052955;28;20029;-77
2022/12/11 11:45:10;;;;;;;8.13;5.78;;;11.70;60.80;;;;;;5053165;28;20076;-77
2022/12/11 11:47:43;;;;;;;9.15;6.30;;;11.70;60.80;;;;;;5052838;28;20071;-76
2022/12/11 11:50:19;;;;;;;9.93;6.30;;;11.70;60.90;;;;;;5053085;28;20029;-77
2022/12/11 11:52:54;;;;;;;9.77;6.43;;;11.70;61.00;;;;;;5051638;28;20028;-78
2022/12/11 11:55:48;;;;;;;10.50;6.53;;;11.60;74.90;;;;;;5051733;28;20017;-77
2022/12/11 11:58:21;;;;;;;9.63;6.32;;;11.60;61.10;;;;;;5052847;28;20028;-78
2022/12/11 12:00:48;;;;;;;9.93;6.43;;;11.70;75.40;;;;;;5051502;28;20025;-77
2022/12/11 12:03:20;;;;;;;10.40;6.53;;;11.60;61.50;;;;;;5052699;28;20043;-77
2022/12/11 12:05:52;;;;;;;8.73;6.63;;;11.60;61.70;;;;;;5052939;28;20021;-79
2022/12/11 12:08:40;;;;;;;7.38;5.32;;;11.70;76.20;;;;;;5052813;28;20075;-78
2022/12/11 12:11:27;;;;;;;10.95;6.43;;;11.70;62.00;;;;;;5052878;28;20055;-78
2022/12/11 12:14:38;;;;;;;8.43;5.75;;;11.70;62.00;;;;;;5053125;28;20438;-78
2022/12/11 12:17:09;;;;;;;7.28;6.00;;;11.70;62.00;;;;;;5030464;28;20037;-79
2022/12/11 12:19:51;;;;;;;9.55;5.93;;;11.70;62.10;;;;;;5050625;28;20586;-80
2022/12/11 12:22:52;;;;;;;8.18;6.28;;;11.70;62.00;;;;;;5052473;28;20471;-77
2022/12/11 12:25:42;;;;;;;10.23;5.75;;;11.70;61.90;;;;;;5052403;28;20049;-79
2022/12/11 12:28:26;;;;;;;7.28;5.63;;;11.70;61.90;;;;;;5052202;28;20041;-80
2022/12/11 12:31:22;;;;;;;11.30;6.38;;;11.80;61.30;;;;;;5052357;28;20024;-77
2022/12/11 12:34:16;;;;;;;9.63;5.38;;;11.70;61.80;;;;;;5052269;28;20419;-77
2022/12/11 12:37:13;;;;;;;8.32;5.28;;;11.70;62.00;;;;;;5052395;28;20029;-77
2022/12/11 12:39:55;;;;;;;9.25;5.93;;;11.80;61.80;;;;;;5052338;28;20025;-78
2022/12/11 12:42:39;;;;;;;8.23;5.47;;;11.80;61.80;;;;;;5052327;28;20040;-77
2022/12/11 12:45:24;;;;;;;7.20;5.10;;;11.80;61.70;;;;;;5052300;28;20033;-77
2022/12/11 12:47:51;;;;;;;7.63;5.63;;;11.80;61.80;;;;;;5051979;28;20060;-77
2022/12/11 12:50:23;;;;;;;7.90;5.68;;;11.80;61.60;;;;;;5052122;28;20029;-77
2022/12/11 12:52:50;;;;;;;7.13;5.15;;;11.80;61.60;;;;;;5052144;28;20021;-78
2022/12/11 12:55:23;;;;;;;8.40;5.10;;;11.80;61.60;;;;;;5052193;28;20010;-76
2022/12/11 12:57:56;;;;;;;7.28;5.25;;;11.80;61.60;;;;;;5050797;28;20021;-75
2022/12/11 13:00:34;;;;;;;7.90;5.90;;;11.80;61.70;;;;;;5050926;28;20480;-76
2022/12/11 13:03:14;;;;;;;7.70;5.15;;;11.80;61.60;;;;;;5052074;28;20029;-76
2022/12/11 13:05:43;;;;;;;7.50;5.17;;;11.80;61.70;;;;;;5052064;28;20028;-77
2022/12/11 13:08:10;;;;;;;7.85;5.10;;;11.80;61.60;;;;;;5051919;28;20078;-76
2022/12/11 13:10:41;;;;;;;6.85;4.90;;;11.80;61.70;;;;;;5052092;28;20029;-76
2022/12/11 13:13:39;;;;;;;8.52;5.70;;;11.80;61.90;;;;;;5051954;28;20570;-77